Time;durP1;ratioP1;P1;durP2;ratioP2;P2;SDS_P1;SDS_P2;PMS_P1;PMS_P2;Temp;Humidity;BMP_temperature;BMP_pressure;BME280_temperature;BME280_humidity;BME280_pressure;Samples;Min_cycle;Max_cycle;Signal;HPM_P1;HPM_P2
2023/12/25 00:01:13;;;;;;;110.38;38.92;;;;;;;;;;4952963;28;20634;-45
2023/12/25 00:03:39;;;;;;;109.93;40.17;;;;;;;;;;4936976;29;20219;-45
2023/12/25 00:06:05;;;;;;;116.90;41.00;;;;;;;;;;4955491;29;20834;-45
2023/12/25 00:08:31;;;;;;;139.73;48.50;;;;;;;;;;4941554;28;20458;-45
2023/12/25 00:10:57;;;;;;;128.97;46.40;;;;;;;;;;4947390;28;20735;-45
2023/12/25 00:13:22;;;;;;;117.37;40.53;;;;;;;;;;4949451;28;20479;-46
2023/12/25 00:15:48;;;;;;;114.10;38.57;;;;;;;;;;4939633;29;20411;-45
2023/12/25 00:18:14;;;;;;;114.57;38.23;;;;;;;;;;4956182;28;20489;-44
2023/12/25 00:20:42;;;;;;;113.95;40.78;;;;;;;;;;4937537;28;20414;-45
2023/12/25 00:23:08;;;;;;;121.47;41.05;;;;;;;;;;4937297;29;20199;-45
2023/12/25 00:25:34;;;;;;;118.53;40.08;;;;;;;;;;4946777;29;20182;-45
2023/12/25 00:28:00;;;;;;;107.37;37.17;;;;;;;;;;4953182;28;20202;-44
2023/12/25 00:30:26;;;;;;;89.90;47.53;;;;;;;;;;4953405;28;20524;-45
2023/12/25 00:32:51;;;;;;;67.87;40.90;;;;;;;;;;4936571;29;20788;-44
2023/12/25 00:35:17;;;;;;;55.20;32.47;;;;;;;;;;4953846;29;20427;-44
2023/12/25 00:37:43;;;;;;;46.65;33.53;;;;;;;;;;4942127;28;20183;-45
2023/12/25 00:40:09;;;;;;;36.33;30.87;;;;;;;;;;4945927;29;20178;-44
2023/12/25 00:42:35;;;;;;;36.08;31.33;;;;;;;;;;4950109;28;20434;-46
2023/12/25 00:45:01;;;;;;;38.77;35.00;;;;;;;;;;4938033;29;20171;-45
2023/12/25 00:47:27;;;;;;;32.93;29.53;;;;;;;;;;4955313;28;20453;-45
2023/12/25 00:49:53;;;;;;;70.87;41.87;;;;;;;;;;4938453;28;20422;-46
2023/12/25 00:52:19;;;;;;;53.03;40.13;;;;;;;;;;4948809;28;20430;-46
2023/12/25 00:54:45;;;;;;;52.17;33.90;;;;;;;;;;4946144;28;20438;-46
2023/12/25 00:57:11;;;;;;;82.63;43.22;;;;;;;;;;4936878;29;20231;-46
2023/12/25 00:59:37;;;;;;;60.70;40.25;;;;;;;;;;4937239;29;20222;-46
2023/12/25 01:02:03;;;;;;;69.63;41.60;;;;;;;;;;4954891;28;20603;-46
2023/12/25 01:04:29;;;;;;;69.15;42.20;;;;;;;;;;4938488;28;20430;-46
2023/12/25 01:06:55;;;;;;;55.40;32.47;;;;;;;;;;4948598;29;20179;-46
2023/12/25 01:09:22;;;;;;;74.50;41.37;;;;;;;;;;4949507;28;20581;-46
2023/12/25 01:11:48;;;;;;;64.30;33.80;;;;;;;;;;4954158;28;20967;-45
2023/12/25 01:14:14;;;;;;;71.53;34.50;;;;;;;;;;4951737;28;20175;-45
2023/12/25 01:16:40;;;;;;;123.13;41.80;;;;;;;;;;4954447;28;20421;-45
2023/12/25 01:19:05;;;;;;;127.27;41.63;;;;;;;;;;4954832;28;20644;-46
2023/12/25 01:21:32;;;;;;;120.87;41.10;;;;;;;;;;4954590;28;20988;-45
2023/12/25 01:23:58;;;;;;;119.88;41.58;;;;;;;;;;4954311;28;20425;-45
2023/12/25 01:26:25;;;;;;;118.47;41.13;;;;;;;;;;4948292;28;20180;-46
2023/12/25 01:28:51;;;;;;;119.30;40.40;;;;;;;;;;4952827;28;20285;-46
2023/12/25 01:31:17;;;;;;;123.30;43.50;;;;;;;;;;4953703;28;20190;-45
2023/12/25 01:33:43;;;;;;;123.90;44.20;;;;;;;;;;4952849;28;20546;-45
2023/12/25 01:36:09;;;;;;;118.22;40.92;;;;;;;;;;4953973;28;20167;-45
2023/12/25 01:38:35;;;;;;;120.27;41.53;;;;;;;;;;4954410;28;20182;-46
2023/12/25 01:41:01;;;;;;;120.70;41.30;;;;;;;;;;4953994;28;20430;-46
2023/12/25 01:43:27;;;;;;;118.10;42.20;;;;;;;;;;4954422;28;20414;-47
2023/12/25 01:45:53;;;;;;;117.97;40.53;;;;;;;;;;4954165;28;20810;-45
2023/12/25 01:48:20;;;;;;;129.23;43.08;;;;;;;;;;4954333;28;20473;-46
2023/12/25 01:50:46;;;;;;;154.48;50.85;;;;;;;;;;4954009;28;20240;-46
2023/12/25 01:53:13;;;;;;;121.10;42.17;;;;;;;;;;4953869;28;20749;-47
2023/12/25 01:55:39;;;;;;;120.93;40.88;;;;;;;;;;4954305;28;20170;-46
2023/12/25 01:58:05;;;;;;;122.50;40.97;;;;;;;;;;4952894;28;20179;-46
2023/12/25 02:00:31;;;;;;;124.50;44.30;;;;;;;;;;4953654;28;20676;-46
2023/12/25 02:02:56;;;;;;;131.83;43.20;;;;;;;;;;4953593;28;21000;-46
2023/12/25 02:05:22;;;;;;;127.57;40.70;;;;;;;;;;4953878;28;20427;-46
2023/12/25 02:07:49;;;;;;;129.13;42.60;;;;;;;;;;4953740;28;20458;-47
2023/12/25 02:10:28;;;;;;;126.15;41.72;;;;;;;;;;4953928;28;20188;-46
2023/12/25 02:12:54;;;;;;;123.78;42.30;;;;;;;;;;4953609;28;20190;-46
2023/12/25 02:15:20;;;;;;;129.38;43.55;;;;;;;;;;4953770;28;20536;-46
2023/12/25 02:17:46;;;;;;;120.88;39.22;;;;;;;;;;4953881;28;20182;-46
2023/12/25 02:20:13;;;;;;;149.93;51.05;;;;;;;;;;4953606;28;20186;-46
2023/12/25 02:22:39;;;;;;;114.70;39.35;;;;;;;;;;4953246;28;20206;-46
2023/12/25 02:25:12;;;;;;;126.63;42.60;;;;;;;;;;4953946;28;20280;-46
2023/12/25 02:27:38;;;;;;;127.93;43.97;;;;;;;;;;4953347;28;20281;-46
2023/12/25 02:30:05;;;;;;;118.60;40.10;;;;;;;;;;4953421;28;20277;-46
2023/12/25 02:32:31;;;;;;;143.30;49.97;;;;;;;;;;4953280;28;20440;-46
2023/12/25 02:34:57;;;;;;;117.25;41.60;;;;;;;;;;4953527;28;20171;-45
2023/12/25 02:37:23;;;;;;;116.75;39.85;;;;;;;;;;4953442;28;20261;-46
2023/12/25 02:39:49;;;;;;;114.83;39.00;;;;;;;;;;4953472;28;20295;-45
2023/12/25 02:42:15;;;;;;;125.60;42.13;;;;;;;;;;4952856;28;20451;-46
2023/12/25 02:44:41;;;;;;;114.20;39.07;;;;;;;;;;4953529;28;20420;-46
2023/12/25 02:47:07;;;;;;;119.33;39.33;;;;;;;;;;4953272;28;20415;-46
2023/12/25 02:49:33;;;;;;;118.30;40.60;;;;;;;;;;4953356;28;20890;-45
2023/12/25 02:51:59;;;;;;;127.93;42.20;;;;;;;;;;4953102;28;20793;-45
2023/12/25 02:54:25;;;;;;;155.40;50.75;;;;;;;;;;4953427;28;20494;-46
2023/12/25 02:56:51;;;;;;;139.47;49.90;;;;;;;;;;4953054;28;20269;-46
2023/12/25 02:59:17;;;;;;;128.77;43.47;;;;;;;;;;4953307;28;20426;-46
2023/12/25 03:01:43;;;;;;;122.03;39.73;;;;;;;;;;4953083;28;20458;-46
2023/12/25 03:04:08;;;;;;;121.37;40.47;;;;;;;;;;4953052;28;20445;-46
2023/12/25 03:06:34;;;;;;;122.33;39.80;;;;;;;;;;4953321;28;20449;-46
2023/12/25 03:09:00;;;;;;;119.33;40.47;;;;;;;;;;4952895;28;20465;-45
2023/12/25 03:11:26;;;;;;;119.30;40.37;;;;;;;;;;4953146;28;20431;-46
2023/12/25 03:13:52;;;;;;;129.60;42.50;;;;;;;;;;4953314;28;20419;-46
2023/12/25 03:16:19;;;;;;;125.93;40.93;;;;;;;;;;4953291;28;20872;-46
2023/12/25 03:18:45;;;;;;;120.85;40.40;;;;;;;;;;4953093;28;20422;-46
2023/12/25 03:21:11;;;;;;;132.80;47.80;;;;;;;;;;4952781;28;20186;-45
2023/12/25 03:23:37;;;;;;;111.47;40.25;;;;;;;;;;4953067;28;20426;-46
2023/12/25 03:26:05;;;;;;;103.60;40.10;;;;;;;;;;4952741;28;20686;-46
2023/12/25 03:28:31;;;;;;;121.88;46.67;;;;;;;;;;4952975;28;20788;-45
2023/12/25 03:30:57;;;;;;;47.00;32.93;;;;;;;;;;4952482;28;20251;-46
2023/12/25 03:33:23;;;;;;;58.70;33.97;;;;;;;;;;4954097;28;20402;-45
2023/12/25 03:35:49;;;;;;;75.40;34.60;;;;;;;;;;4956291;28;20409;-46
2023/12/25 03:38:15;;;;;;;105.10;44.53;;;;;;;;;;4949496;28;20186;-45
2023/12/25 03:40:41;;;;;;;117.10;47.23;;;;;;;;;;4940298;29;20410;-45
2023/12/25 03:43:06;;;;;;;95.83;37.30;;;;;;;;;;4956663;28;20440;-45
2023/12/25 03:45:32;;;;;;;104.23;37.40;;;;;;;;;;4938029;28;20424;-46
2023/12/25 03:47:58;;;;;;;106.63;39.90;;;;;;;;;;4951740;29;20455;-45
2023/12/25 03:50:25;;;;;;;104.03;39.93;;;;;;;;;;4945667;28;20775;-46
2023/12/25 03:52:51;;;;;;;111.10;40.33;;;;;;;;;;4943699;29;20484;-46
2023/12/25 03:55:17;;;;;;;110.60;39.87;;;;;;;;;;4953676;28;20179;-47
2023/12/25 03:57:43;;;;;;;113.05;39.65;;;;;;;;;;4947191;29;20410;-46
2023/12/25 04:00:09;;;;;;;103.38;38.67;;;;;;;;;;4938456;28;20242;-45
2023/12/25 04:02:35;;;;;;;120.35;40.63;;;;;;;;;;4950947;28;20298;-46
2023/12/25 04:05:01;;;;;;;123.05;41.22;;;;;;;;;;4946041;28;20273;-46
2023/12/25 04:07:28;;;;;;;119.88;41.20;;;;;;;;;;4943147;29;20206;-46
2023/12/25 04:09:54;;;;;;;122.37;42.47;;;;;;;;;;4953473;28;20182;-46
2023/12/25 04:12:20;;;;;;;123.00;40.63;;;;;;;;;;4936850;29;20509;-46
2023/12/25 04:14:45;;;;;;;133.50;43.20;;;;;;;;;;4954453;29;20414;-46
2023/12/25 04:17:11;;;;;;;119.70;39.63;;;;;;;;;;4942399;28;20499;-47
2023/12/25 04:19:38;;;;;;;121.40;40.55;;;;;;;;;;4945216;29;20481;-46
2023/12/25 04:22:04;;;;;;;123.28;41.53;;;;;;;;;;4949777;28;20197;-46
2023/12/25 04:24:30;;;;;;;121.03;40.53;;;;;;;;;;4938406;29;20170;-46
2023/12/25 04:26:55;;;;;;;116.23;38.53;;;;;;;;;;4956095;28;20285;-46
2023/12/25 04:29:21;;;;;;;110.30;37.83;;;;;;;;;;4953066;28;20468;-46
2023/12/25 04:31:47;;;;;;;92.07;36.23;;;;;;;;;;4942459;28;20434;-46
2023/12/25 04:34:13;;;;;;;53.63;32.37;;;;;;;;;;4945740;29;20415;-46
2023/12/25 04:36:39;;;;;;;49.37;30.67;;;;;;;;;;4950335;28;20420;-46
2023/12/25 04:39:06;;;;;;;61.87;32.50;;;;;;;;;;4937614;29;20419;-46
2023/12/25 04:41:32;;;;;;;68.47;32.38;;;;;;;;;;4955438;28;20937;-46
2023/12/25 04:43:58;;;;;;;76.63;33.17;;;;;;;;;;4938828;28;20187;-46
2023/12/25 04:46:24;;;;;;;79.10;34.37;;;;;;;;;;4949113;28;20418;-46
2023/12/25 04:48:50;;;;;;;130.10;41.40;;;;;;;;;;4946586;28;20458;-46
2023/12/25 04:51:16;;;;;;;137.15;43.42;;;;;;;;;;4940501;28;20435;-46
2023/12/25 04:53:43;;;;;;;129.37;41.90;;;;;;;;;;4954606;28;20178;-46
2023/12/25 04:56:10;;;;;;;126.30;40.60;;;;;;;;;;4936422;29;20898;-47
2023/12/25 04:58:36;;;;;;;130.35;42.40;;;;;;;;;;4936850;29;20176;-45
2023/12/25 05:01:03;;;;;;;122.63;40.35;;;;;;;;;;4948419;28;20182;-46
2023/12/25 05:03:29;;;;;;;125.32;41.92;;;;;;;;;;4946473;28;20183;-46
2023/12/25 05:05:55;;;;;;;119.70;40.60;;;;;;;;;;4940485;29;20298;-46
2023/12/25 05:08:21;;;;;;;119.93;41.90;;;;;;;;;;4954216;28;20467;-46
2023/12/25 05:10:47;;;;;;;116.93;40.20;;;;;;;;;;4936000;29;20926;-45
2023/12/25 05:13:13;;;;;;;94.07;37.78;;;;;;;;;;4951655;29;20426;-46
2023/12/25 05:15:39;;;;;;;74.88;37.70;;;;;;;;;;4943161;28;20186;-47
2023/12/25 05:18:05;;;;;;;86.70;39.75;;;;;;;;;;4943867;29;20178;-46
2023/12/25 05:20:31;;;;;;;115.03;47.13;;;;;;;;;;4950909;28;20184;-46
2023/12/25 05:22:58;;;;;;;87.33;39.47;;;;;;;;;;4935928;29;20501;-46
2023/12/25 05:25:24;;;;;;;97.85;45.55;;;;;;;;;;4954948;28;20504;-46
2023/12/25 05:27:50;;;;;;;57.97;41.57;;;;;;;;;;4941509;28;20777;-46
2023/12/25 05:30:17;;;;;;;47.20;32.23;;;;;;;;;;4942940;28;20484;-46
2023/12/25 05:32:42;;;;;;;66.20;35.08;;;;;;;;;;4943037;29;20933;-46
2023/12/25 05:35:09;;;;;;;71.32;35.00;;;;;;;;;;4950580;28;20230;-45
2023/12/25 05:37:35;;;;;;;43.20;38.25;;;;;;;;;;4935643;29;20172;-46
2023/12/25 05:40:01;;;;;;;91.15;38.60;;;;;;;;;;4954584;29;20670;-45
2023/12/25 05:42:27;;;;;;;93.43;38.15;;;;;;;;;;4939109;28;20217;-46
2023/12/25 05:44:53;;;;;;;98.20;38.43;;;;;;;;;;4946867;29;20186;-46
2023/12/25 05:47:19;;;;;;;103.53;45.80;;;;;;;;;;4947504;28;20539;-46
2023/12/25 05:49:45;;;;;;;40.87;37.07;;;;;;;;;;4938119;29;20452;-46
2023/12/25 05:52:12;;;;;;;27.37;24.93;;;;;;;;;;4954309;28;20492;-45
2023/12/25 05:54:38;;;;;;;64.68;41.70;;;;;;;;;;4935551;28;20821;-46
2023/12/25 05:57:04;;;;;;;74.73;36.20;;;;;;;;;;4949229;29;20203;-48
2023/12/25 05:59:30;;;;;;;139.27;50.58;;;;;;;;;;4943686;28;20448;-46
2023/12/25 06:01:56;;;;;;;124.93;46.30;;;;;;;;;;4941466;29;20202;-46
2023/12/25 06:04:22;;;;;;;136.83;50.10;;;;;;;;;;4950806;28;20445;-46
2023/12/25 06:06:48;;;;;;;133.68;48.85;;;;;;;;;;4935140;29;20442;-46
2023/12/25 06:09:14;;;;;;;116.93;41.63;;;;;;;;;;4952785;29;20294;-46
2023/12/25 06:11:39;;;;;;;143.93;54.90;;;;;;;;;;4940201;28;20429;-46
2023/12/25 06:14:05;;;;;;;136.93;49.13;;;;;;;;;;4953582;28;20904;-46
2023/12/25 06:16:32;;;;;;;86.97;43.37;;;;;;;;;;4954389;28;20412;-45
2023/12/25 06:18:58;;;;;;;81.43;35.80;;;;;;;;;;4953445;28;20414;-47
2023/12/25 06:21:24;;;;;;;103.80;43.80;;;;;;;;;;4953592;28;20208;-46
2023/12/25 06:23:50;;;;;;;82.47;35.53;;;;;;;;;;4956679;28;20417;-46
2023/12/25 06:26:16;;;;;;;79.80;32.50;;;;;;;;;;4953614;28;20181;-45
2023/12/25 06:28:42;;;;;;;76.90;33.30;;;;;;;;;;4953504;28;20455;-46
2023/12/25 06:31:08;;;;;;;96.70;39.57;;;;;;;;;;4953615;28;20410;-46
2023/12/25 06:33:34;;;;;;;113.27;46.80;;;;;;;;;;4953426;28;20439;-46
2023/12/25 06:36:00;;;;;;;87.53;36.73;;;;;;;;;;4953466;28;20412;-45
2023/12/25 06:38:26;;;;;;;114.87;45.17;;;;;;;;;;4953678;28;20963;-46
2023/12/25 06:40:52;;;;;;;89.38;36.72;;;;;;;;;;4953615;28;20769;-48
2023/12/25 06:43:18;;;;;;;96.87;37.80;;;;;;;;;;4954231;28;20194;-45
2023/12/25 06:45:44;;;;;;;125.50;47.40;;;;;;;;;;4953424;28;20504;-46
2023/12/25 06:48:10;;;;;;;120.77;48.57;;;;;;;;;;4953071;28;20470;-46
2023/12/25 06:50:38;;;;;;;84.20;38.67;;;;;;;;;;4953239;28;20404;-46
2023/12/25 06:53:04;;;;;;;94.35;37.90;;;;;;;;;;4953102;28;20865;-46
2023/12/25 06:55:30;;;;;;;138.13;49.92;;;;;;;;;;4953461;28;20659;-47
2023/12/25 06:57:56;;;;;;;111.07;45.85;;;;;;;;;;4953346;28;20607;-48
2023/12/25 07:00:23;;;;;;;82.93;37.63;;;;;;;;;;4953297;28;20179;-45
2023/12/25 07:02:50;;;;;;;117.60;47.53;;;;;;;;;;4953015;28;20835;-47
2023/12/25 07:05:16;;;;;;;109.20;46.00;;;;;;;;;;4953227;28;20539;-46
2023/12/25 07:07:42;;;;;;;90.40;37.72;;;;;;;;;;4953177;28;20198;-47
2023/12/25 07:10:08;;;;;;;95.00;38.77;;;;;;;;;;4957054;28;20173;-45
2023/12/25 07:12:34;;;;;;;118.05;46.90;;;;;;;;;;4956811;28;20440;-46
2023/12/25 07:15:00;;;;;;;70.90;35.60;;;;;;;;;;4956947;28;20285;-45
2023/12/25 07:17:26;;;;;;;74.97;36.57;;;;;;;;;;4957094;28;20681;-46
2023/12/25 07:19:52;;;;;;;60.87;33.37;;;;;;;;;;4957083;28;20935;-45
2023/12/25 07:22:18;;;;;;;62.10;34.50;;;;;;;;;;4956622;28;20460;-46
2023/12/25 07:24:44;;;;;;;55.70;33.47;;;;;;;;;;4956912;28;20414;-46
2023/12/25 07:27:10;;;;;;;43.42;33.00;;;;;;;;;;4956885;28;20173;-46
2023/12/25 07:29:37;;;;;;;48.97;39.55;;;;;;;;;;4956477;28;20197;-46
2023/12/25 07:32:03;;;;;;;29.08;26.63;;;;;;;;;;4956416;28;20331;-44
2023/12/25 07:34:29;;;;;;;35.33;32.55;;;;;;;;;;4956949;28;20181;-44
2023/12/25 07:36:55;;;;;;;34.33;31.25;;;;;;;;;;4956580;28;20192;-45
2023/12/25 07:39:21;;;;;;;35.67;32.25;;;;;;;;;;4956753;28;20179;-45
2023/12/25 07:41:47;;;;;;;31.97;29.30;;;;;;;;;;4956245;28;20205;-45
2023/12/25 07:44:13;;;;;;;22.90;21.30;;;;;;;;;;4956463;28;20410;-45
2023/12/25 07:46:39;;;;;;;35.47;32.88;;;;;;;;;;4956740;28;20483;-45
2023/12/25 07:49:05;;;;;;;41.60;37.70;;;;;;;;;;4956442;28;20233;-45
2023/12/25 07:51:31;;;;;;;40.07;36.40;;;;;;;;;;4956101;28;20944;-45
2023/12/25 07:53:57;;;;;;;39.60;36.07;;;;;;;;;;4956301;28;20863;-46
2023/12/25 07:56:23;;;;;;;49.47;32.30;;;;;;;;;;4956326;28;20755;-45
2023/12/25 07:58:48;;;;;;;34.87;31.13;;;;;;;;;;4956127;28;20829;-46
2023/12/25 08:01:14;;;;;;;36.10;29.00;;;;;;;;;;4955922;28;20446;-46
2023/12/25 08:03:40;;;;;;;64.38;33.28;;;;;;;;;;4955965;28;20413;-46
2023/12/25 08:06:07;;;;;;;103.47;45.20;;;;;;;;;;4956302;28;20178;-45
2023/12/25 08:08:33;;;;;;;70.43;34.22;;;;;;;;;;4955987;28;20470;-45
2023/12/25 08:10:59;;;;;;;37.40;30.67;;;;;;;;;;4956094;28;20597;-45
2023/12/25 08:13:25;;;;;;;43.20;38.70;;;;;;;;;;4955665;28;20410;-47
2023/12/25 08:15:51;;;;;;;40.87;37.07;;;;;;;;;;4956276;28;20406;-45
2023/12/25 08:18:17;;;;;;;42.27;38.00;;;;;;;;;;4973109;28;20428;-46
2023/12/25 08:20:42;;;;;;;22.00;20.30;;;;;;;;;;4961643;28;20418;-45
2023/12/25 08:23:08;;;;;;;42.97;37.73;;;;;;;;;;4956580;28;20857;-45
2023/12/25 08:25:35;;;;;;;43.37;39.13;;;;;;;;;;4955555;28;20448;-46
2023/12/25 08:28:01;;;;;;;45.40;40.50;;;;;;;;;;4954935;28;20991;-46
2023/12/25 08:30:27;;;;;;;37.88;32.85;;;;;;;;;;4955342;28;20637;-45
2023/12/25 08:32:53;;;;;;;52.25;32.50;;;;;;;;;;4955666;28;20577;-46
2023/12/25 08:35:19;;;;;;;61.97;33.70;;;;;;;;;;4956175;28;20647;-45
2023/12/25 08:37:45;;;;;;;72.38;35.17;;;;;;;;;;4960356;28;20799;-46
2023/12/25 08:40:10;;;;;;;83.63;35.67;;;;;;;;;;4955509;28;20241;-45
2023/12/25 08:42:36;;;;;;;90.67;37.23;;;;;;;;;;4955040;28;20205;-44
2023/12/25 08:45:04;;;;;;;94.18;37.50;;;;;;;;;;4955347;28;20427;-45
2023/12/25 08:47:30;;;;;;;90.32;37.15;;;;;;;;;;4955321;28;20168;-44
2023/12/25 08:49:56;;;;;;;82.45;35.60;;;;;;;;;;4955473;28;20679;-45
2023/12/25 08:52:22;;;;;;;84.97;36.23;;;;;;;;;;4954905;28;20202;-44
2023/12/25 08:54:48;;;;;;;84.55;37.30;;;;;;;;;;4955453;28;20447;-46
2023/12/25 08:57:15;;;;;;;84.53;37.63;;;;;;;;;;4955050;28;20674;-46
2023/12/25 08:59:41;;;;;;;84.03;36.28;;;;;;;;;;4955462;28;20182;-46
2023/12/25 09:02:07;;;;;;;88.28;38.17;;;;;;;;;;4954718;28;20203;-45
2023/12/25 09:04:33;;;;;;;95.88;37.50;;;;;;;;;;4955094;28;20209;-46
2023/12/25 09:06:59;;;;;;;118.30;46.27;;;;;;;;;;4955074;28;20260;-46
2023/12/25 09:09:25;;;;;;;84.83;37.23;;;;;;;;;;4954807;28;20468;-46
2023/12/25 09:11:51;;;;;;;117.68;47.15;;;;;;;;;;4954715;28;20432;-45
2023/12/25 09:14:17;;;;;;;86.65;36.13;;;;;;;;;;4954668;28;20187;-46
2023/12/25 09:16:43;;;;;;;84.90;36.47;;;;;;;;;;4955015;28;20174;-45
2023/12/25 09:19:09;;;;;;;96.43;38.07;;;;;;;;;;4954773;28;20423;-45
2023/12/25 09:21:42;;;;;;;97.97;36.97;;;;;;;;;;4954784;28;20445;-45
2023/12/25 09:24:08;;;;;;;166.75;54.25;;;;;;;;;;4954496;28;20415;-45
2023/12/25 09:26:34;;;;;;;122.80;40.00;;;;;;;;;;4954896;28;20201;-45
2023/12/25 09:29:00;;;;;;;125.00;40.77;;;;;;;;;;4954494;28;20676;-45
2023/12/25 09:31:26;;;;;;;122.40;41.47;;;;;;;;;;4953430;28;20430;-44
2023/12/25 09:33:52;;;;;;;122.93;41.53;;;;;;;;;;4954470;28;20409;-45
2023/12/25 09:36:18;;;;;;;108.35;38.80;;;;;;;;;;4954379;28;20582;-45
2023/12/25 09:38:44;;;;;;;108.68;37.95;;;;;;;;;;4954509;28;20202;-45
2023/12/25 09:41:14;;;;;;;112.57;40.77;;;;;;;;;;4954656;28;20221;-45
2023/12/25 09:43:41;;;;;;;128.55;44.63;;;;;;;;;;4953844;28;20499;-45
2023/12/25 09:46:10;;;;;;;90.68;36.85;;;;;;;;;;4953741;28;20197;-45
2023/12/25 09:48:37;;;;;;;103.40;38.85;;;;;;;;;;4954359;28;20189;-45
2023/12/25 09:51:04;;;;;;;123.28;43.00;;;;;;;;;;4953575;28;20266;-45
2023/12/25 09:53:30;;;;;;;125.63;42.05;;;;;;;;;;4953868;28;20170;-45
2023/12/25 09:55:57;;;;;;;125.23;41.57;;;;;;;;;;4954441;28;20194;-46
2023/12/25 09:58:23;;;;;;;120.70;40.88;;;;;;;;;;4953967;28;20410;-45
2023/12/25 10:00:49;;;;;;;123.07;40.60;;;;;;;;;;4953999;28;20186;-45
2023/12/25 10:03:16;;;;;;;126.07;43.97;;;;;;;;;;4953734;28;20670;-46
2023/12/25 10:05:41;;;;;;;158.73;54.45;;;;;;;;;;4954171;28;20211;-45
2023/12/25 10:08:07;;;;;;;120.67;42.10;;;;;;;;;;4953646;28;20278;-44
2023/12/25 10:10:34;;;;;;;125.93;44.33;;;;;;;;;;4953687;28;20413;-44
2023/12/25 10:13:00;;;;;;;114.18;40.08;;;;;;;;;;4953476;28;20796;-46
2023/12/25 10:15:26;;;;;;;110.40;40.67;;;;;;;;;;4953908;28;20181;-45
2023/12/25 10:18:00;;;;;;;117.38;41.90;;;;;;;;;;4953893;28;20430;-46
2023/12/25 10:20:26;;;;;;;179.30;62.38;;;;;;;;;;4945596;28;20403;-45
2023/12/25 10:22:52;;;;;;;64.27;34.30;;;;;;;;;;4952281;28;20190;-46
2023/12/25 10:25:18;;;;;;;91.30;45.80;;;;;;;;;;4953713;28;20498;-46
2023/12/25 10:27:44;;;;;;;94.87;46.47;;;;;;;;;;4953659;28;20504;-46
2023/12/25 10:30:17;;;;;;;74.43;37.17;;;;;;;;;;4953771;28;20421;-45
2023/12/25 10:32:43;;;;;;;88.57;45.33;;;;;;;;;;4953465;28;20190;-45
2023/12/25 10:35:10;;;;;;;81.35;38.03;;;;;;;;;;4953338;28;20175;-46
2023/12/25 10:37:39;;;;;;;90.90;41.10;;;;;;;;;;4953991;28;20237;-46
2023/12/25 10:40:18;;;;;;;111.18;41.95;;;;;;;;;;4955826;28;20245;-46
2023/12/25 10:42:48;;;;;;;104.10;43.05;;;;;;;;;;4972376;28;20189;-45
2023/12/25 10:45:18;;;;;;;100.47;39.50;;;;;;;;;;4934791;29;20222;-45
2023/12/25 10:47:45;;;;;;;101.80;38.13;;;;;;;;;;4967278;28;20505;-45
2023/12/25 10:50:11;;;;;;;111.82;41.30;;;;;;;;;;4959343;28;20197;-44
2023/12/25 10:52:38;;;;;;;118.95;43.90;;;;;;;;;;4947580;28;20755;-45
2023/12/25 10:55:04;;;;;;;120.93;47.33;;;;;;;;;;4948938;28;20171;-45
2023/12/25 10:57:30;;;;;;;122.75;43.92;;;;;;;;;;4942131;29;20346;-45
2023/12/25 10:59:56;;;;;;;124.50;43.35;;;;;;;;;;4934192;29;20167;-45
2023/12/25 11:02:23;;;;;;;134.73;51.13;;;;;;;;;;4949411;28;20206;-46
2023/12/25 11:04:49;;;;;;;91.80;40.13;;;;;;;;;;4941374;28;20281;-45
2023/12/25 11:07:17;;;;;;;83.03;36.70;;;;;;;;;;4942104;29;20186;-45
2023/12/25 11:09:45;;;;;;;98.13;47.80;;;;;;;;;;4948743;28;20267;-44
2023/12/25 11:12:12;;;;;;;114.32;49.15;;;;;;;;;;4934108;29;20184;-44
2023/12/25 11:14:38;;;;;;;88.93;37.17;;;;;;;;;;4953150;28;20610;-44
2023/12/25 11:17:04;;;;;;;101.55;39.45;;;;;;;;;;4936911;28;20176;-44
2023/12/25 11:19:30;;;;;;;112.60;40.53;;;;;;;;;;4945996;28;20186;-44
2023/12/25 11:21:56;;;;;;;109.72;41.25;;;;;;;;;;4944527;28;20510;-44
2023/12/25 11:24:27;;;;;;;106.80;39.72;;;;;;;;;;4938216;29;20181;-45
2023/12/25 11:27:02;;;;;;;103.13;39.80;;;;;;;;;;4952133;28;20167;-46
2023/12/25 11:29:31;;;;;;;93.32;38.30;;;;;;;;;;4949182;29;20304;-45
2023/12/25 11:32:06;;;;;;;106.55;40.33;;;;;;;;;;4934913;28;20404;-45
2023/12/25 11:34:39;;;;;;;105.55;39.13;;;;;;;;;;4949090;29;20549;-44
2023/12/25 11:37:17;;;;;;;113.82;41.08;;;;;;;;;;4941123;28;20586;-45
2023/12/25 11:39:48;;;;;;;121.50;46.17;;;;;;;;;;4942503;29;20190;-45
2023/12/25 11:42:14;;;;;;;112.75;44.15;;;;;;;;;;4944903;28;20207;-45
2023/12/25 11:44:41;;;;;;;111.13;43.33;;;;;;;;;;4935904;29;20371;-45
2023/12/25 11:47:07;;;;;;;121.82;51.60;;;;;;;;;;4951706;28;20429;-44
2023/12/25 11:49:33;;;;;;;91.72;39.92;;;;;;;;;;4935172;28;20206;-45
2023/12/25 11:51:59;;;;;;;89.20;40.13;;;;;;;;;;4946854;28;20229;-44
2023/12/25 11:54:33;;;;;;;109.40;48.00;;;;;;;;;;4944154;28;20186;-45
2023/12/25 11:57:02;;;;;;;88.45;39.30;;;;;;;;;;4943611;29;20427;-44
2023/12/25 11:59:29;;;;;;;118.28;46.95;;;;;;;;;;4952783;28;20399;-44
2023/12/25 12:01:55;;;;;;;93.90;39.58;;;;;;;;;;4937105;29;20184;-46
2023/12/25 12:04:21;;;;;;;114.55;47.95;;;;;;;;;;4937488;28;20219;-45
2023/12/25 12:06:47;;;;;;;85.47;38.97;;;;;;;;;;4951629;29;20220;-45
2023/12/25 12:09:14;;;;;;;101.28;40.13;;;;;;;;;;4945543;28;20473;-45
2023/12/25 12:11:40;;;;;;;118.38;46.65;;;;;;;;;;4942461;29;20226;-45
2023/12/25 12:14:06;;;;;;;105.53;40.10;;;;;;;;;;4952736;28;20183;-46
2023/12/25 12:16:32;;;;;;;113.57;43.00;;;;;;;;;;4935917;29;20508;-45
2023/12/25 12:18:58;;;;;;;103.60;41.60;;;;;;;;;;4955057;29;20429;-46
2023/12/25 12:21:24;;;;;;;104.80;40.93;;;;;;;;;;4940970;28;20435;-45
2023/12/25 12:23:50;;;;;;;145.15;53.58;;;;;;;;;;4942114;29;20480;-45
2023/12/25 12:26:17;;;;;;;117.67;43.53;;;;;;;;;;4954057;28;20716;-45
2023/12/25 12:28:43;;;;;;;119.43;42.58;;;;;;;;;;4950105;28;20476;-45
2023/12/25 12:31:09;;;;;;;123.05;43.22;;;;;;;;;;4951108;29;20182;-45
2023/12/25 12:33:36;;;;;;;124.90;44.10;;;;;;;;;;4952518;28;20591;-45
2023/12/25 12:36:03;;;;;;;124.22;42.30;;;;;;;;;;4954456;28;20190;-45
2023/12/25 12:38:29;;;;;;;140.27;50.28;;;;;;;;;;4944734;28;20175;-44
2023/12/25 12:40:55;;;;;;;135.47;45.23;;;;;;;;;;4945966;28;20687;-45
2023/12/25 12:43:21;;;;;;;132.00;44.27;;;;;;;;;;4954126;28;20827;-45
2023/12/25 12:45:47;;;;;;;167.87;70.13;;;;;;;;;;4935953;29;20442;-45
2023/12/25 12:48:13;;;;;;;122.30;41.97;;;;;;;;;;4953332;29;20458;-45
2023/12/25 12:50:39;;;;;;;116.72;43.47;;;;;;;;;;4941596;28;20220;-45
2023/12/25 12:53:05;;;;;;;117.97;42.13;;;;;;;;;;4946981;29;20202;-45
2023/12/25 12:55:33;;;;;;;129.95;54.05;;;;;;;;;;4948912;28;20185;-45
2023/12/25 12:57:59;;;;;;;117.32;45.53;;;;;;;;;;4951973;28;20174;-45
2023/12/25 13:00:25;;;;;;;112.47;43.87;;;;;;;;;;4934286;29;20250;-46
2023/12/25 13:02:52;;;;;;;118.88;43.95;;;;;;;;;;4953248;28;20513;-45
2023/12/25 13:05:19;;;;;;;118.30;43.83;;;;;;;;;;4939370;28;20187;-45
2023/12/25 13:07:45;;;;;;;111.63;44.67;;;;;;;;;;4943748;29;20175;-45
2023/12/25 13:10:11;;;;;;;113.40;41.15;;;;;;;;;;4948816;28;20277;-45
2023/12/25 13:12:37;;;;;;;119.00;43.63;;;;;;;;;;4936823;29;20203;-45
2023/12/25 13:15:03;;;;;;;117.23;40.40;;;;;;;;;;4954634;28;20223;-45
2023/12/25 13:17:29;;;;;;;114.15;40.53;;;;;;;;;;4937441;28;20505;-45
2023/12/25 13:19:55;;;;;;;110.63;38.97;;;;;;;;;;4948798;29;20181;-45
2023/12/25 13:22:22;;;;;;;123.45;41.67;;;;;;;;;;4945174;28;20200;-45
2023/12/25 13:24:48;;;;;;;116.97;41.30;;;;;;;;;;4940719;29;20205;-45
2023/12/25 13:27:14;;;;;;;116.15;43.20;;;;;;;;;;4952692;28;20162;-45
2023/12/25 13:29:40;;;;;;;152.25;53.30;;;;;;;;;;4935174;29;20537;-45
2023/12/25 13:32:06;;;;;;;128.02;45.63;;;;;;;;;;4951605;28;20202;-45
2023/12/25 13:34:32;;;;;;;132.43;43.97;;;;;;;;;;4941358;28;20255;-45
2023/12/25 13:36:58;;;;;;;129.80;45.53;;;;;;;;;;4951768;29;20241;-45
2023/12/25 13:39:24;;;;;;;128.43;45.40;;;;;;;;;;4949178;28;20415;-45
2023/12/25 13:41:50;;;;;;;128.50;44.72;;;;;;;;;;4935281;29;20437;-45
2023/12/25 13:44:16;;;;;;;123.32;44.05;;;;;;;;;;4954103;28;20520;-45
2023/12/25 13:46:42;;;;;;;116.53;41.93;;;;;;;;;;4937737;28;20175;-45
2023/12/25 13:49:08;;;;;;;116.32;41.45;;;;;;;;;;4947079;29;20894;-45
2023/12/25 13:51:34;;;;;;;126.90;43.83;;;;;;;;;;4945300;28;20210;-46
2023/12/25 13:54:00;;;;;;;131.37;43.87;;;;;;;;;;4938974;29;20428;-45
2023/12/25 13:56:27;;;;;;;129.77;45.67;;;;;;;;;;4952585;28;20410;-45
2023/12/25 13:58:53;;;;;;;128.68;46.58;;;;;;;;;;4933232;29;20171;-45
2023/12/25 14:01:19;;;;;;;117.47;43.50;;;;;;;;;;4934302;29;20702;-45
2023/12/25 14:03:45;;;;;;;136.27;53.03;;;;;;;;;;4945652;28;20183;-45